Time;durP1;ratioP1;P1;durP2;ratioP2;P2;SDS_P1;SDS_P2;PMS_P1;PMS_P2;Temp;Humidity;BMP_temperature;BMP_pressure;BME280_temperature;BME280_humidity;BME280_pressure;Samples;Min_cycle;Max_cycle;Signal;HPM_P1;HPM_P2
2021/12/07 00:01:48;;;;;;;2.55;0.60;;;;;;;20.53;33.09;100515.94;7319690;19;131268;-59
2021/12/07 00:04:15;;;;;;;0.88;0.68;;;;;;;20.52;33.65;100525.38;7319619;19;130845;-59
2021/12/07 00:06:43;;;;;;;1.30;0.80;;;;;;;20.50;33.19;100525.66;7317416;19;129254;-59
2021/12/07 00:09:12;;;;;;;1.70;0.68;;;;;;;20.47;33.56;100526.19;7321205;19;129735;-59
2021/12/07 00:11:39;;;;;;;1.67;0.73;;;;;;;20.45;33.43;100523.69;7316954;19;130713;-59
2021/12/07 00:14:12;;;;;;;1.40;0.60;;;;;;;20.44;33.25;100526.72;7319257;19;130679;-59
2021/12/07 00:16:41;;;;;;;1.50;0.70;;;;;;;20.42;33.15;100523.41;7315354;19;131099;-58
2021/12/07 00:19:09;;;;;;;3.70;0.70;;;;;;;20.40;33.27;100536.72;7319945;19;129373;-58
2021/12/07 00:21:36;;;;;;;1.50;0.80;;;;;;;20.39;33.47;100535.03;7316389;19;131309;-60
2021/12/07 00:24:04;;;;;;;1.83;0.82;;;;;;;20.36;33.28;100533.66;7317089;19;131421;-59
2021/12/07 00:26:37;;;;;;;3.80;0.60;;;;;;;20.34;33.70;100533.06;7319657;19;128910;-59
2021/12/07 00:29:04;;;;;;;0.85;0.50;;;;;;;20.33;33.29;100536.09;7317122;19;129954;-59
2021/12/07 00:31:39;;;;;;;1.63;0.88;;;;;;;20.31;33.51;100555.81;7319486;19;130634;-59
2021/12/07 00:34:18;;;;;;;1.35;0.57;;;;;;;20.29;33.71;100547.75;7314339;19;130554;-58
2021/12/07 00:36:47;;;;;;;1.05;0.68;;;;;;;20.26;33.57;100547.44;7319645;19;134406;-59
2021/12/07 00:39:17;;;;;;;1.95;0.88;;;;;;;20.25;33.77;100552.16;7316036;19;129256;-59
2021/12/07 00:41:44;;;;;;;1.60;0.80;;;;;;;20.23;33.46;100557.16;7318022;19;130858;-59
2021/12/07 00:44:11;;;;;;;1.50;0.77;;;;;;;20.23;33.64;100553.56;7317006;19;131034;-58
2021/12/07 00:46:38;;;;;;;1.65;0.52;;;;;;;20.19;33.88;100558.78;7317236;19;129222;-59
2021/12/07 00:49:04;;;;;;;1.98;0.68;;;;;;;20.18;33.90;100557.13;7316113;19;129838;-59
2021/12/07 00:51:31;;;;;;;1.60;0.70;;;;;;;20.17;33.70;100566.56;7318089;19;130926;-59
2021/12/07 00:53:59;;;;;;;3.33;1.10;;;;;;;20.15;33.77;100568.75;7318568;19;130229;-59
2021/12/07 00:56:25;;;;;;;2.03;0.90;;;;;;;20.14;33.52;100579.03;7317132;19;128900;-59
2021/12/07 00:58:52;;;;;;;1.15;0.70;;;;;;;20.12;33.83;100577.63;7319374;19;129544;-58
2021/12/07 01:01:19;;;;;;;1.20;0.60;;;;;;;20.10;33.49;100582.59;7316138;19;131142;-59
2021/12/07 01:03:48;;;;;;;2.88;0.73;;;;;;;20.07;33.74;100589.53;7318649;19;130525;-59
2021/12/07 01:25:06;;;;;;;1.60;0.93;;;;;;;19.89;33.76;100625.94;7313261;19;131172;-60
2021/12/07 01:27:33;;;;;;;3.05;0.80;;;;;;;19.86;33.83;100632.88;7312403;19;129683;-60
2021/12/07 01:30:13;;;;;;;1.88;0.60;;;;;;;19.84;34.26;100633.16;7316277;19;128968;-59
2021/12/07 01:33:00;;;;;;;2.60;0.77;;;;;;;19.82;34.22;100631.72;7311073;19;132610;-59
2021/12/07 01:38:19;;;;;;;1.13;0.60;;;;;;;19.80;34.09;100636.72;7310395;19;128888;-60
2021/12/07 01:46:39;;;;;;;1.58;0.68;;;;;;;19.76;34.08;100655.81;7314229;19;131173;-59
2021/12/07 02:00:12;;;;;;;6.10;0.88;;;;;;;19.70;34.18;100673.50;7313410;19;131155;-61
2021/12/07 02:02:40;;;;;;;1.42;0.70;;;;;;;19.67;34.19;100676.81;7311541;19;129460;-60
2021/12/07 02:05:09;;;;;;;2.40;0.82;;;;;;;19.66;34.33;100678.75;7309976;19;131135;-60
2021/12/07 02:07:36;;;;;;;2.22;0.90;;;;;;;19.64;33.94;100686.50;7315011;19;131988;-59
2021/12/07 02:10:10;;;;;;;2.03;0.70;;;;;;;19.66;34.21;100695.41;7311600;19;128986;-59
2021/12/07 02:12:45;;;;;;;1.40;0.70;;;;;;;19.66;34.00;100686.22;7316992;19;128989;-59
2021/12/07 02:15:18;;;;;;;1.88;0.85;;;;;;;19.65;33.95;100688.19;7312341;19;133484;-60
2021/12/07 02:17:46;;;;;;;1.63;0.70;;;;;;;19.63;34.03;100690.38;7312062;19;131955;-60
2021/12/07 02:20:14;;;;;;;3.45;1.00;;;;;;;19.65;34.09;100702.06;7312875;19;129544;-59
2021/12/07 02:22:41;;;;;;;1.88;0.90;;;;;;;19.64;34.30;100705.91;7310253;19;129244;-59
2021/12/07 02:25:11;;;;;;;1.60;0.85;;;;;;;19.64;34.11;100705.91;7311786;19;131995;-58
2021/12/07 02:27:38;;;;;;;1.55;0.82;;;;;;;19.65;34.31;100703.97;7310381;19;131040;-59
2021/12/07 02:30:08;;;;;;;1.17;0.85;;;;;;;19.65;33.94;100709.53;7315565;19;129407;-59
2021/12/07 02:32:36;;;;;;;2.60;0.80;;;;;;;19.64;34.29;100708.69;7309351;19;129315;-59
2021/12/07 02:35:04;;;;;;;2.78;0.90;;;;;;;19.64;34.26;100707.84;7314796;19;131725;-59
2021/12/07 02:37:35;;;;;;;1.48;0.80;;;;;;;19.64;34.42;100714.25;7311583;19;132502;-59
2021/12/07 02:40:04;;;;;;;1.20;0.85;;;;;;;19.61;34.43;100723.09;7314671;19;129397;-59
2021/12/07 02:42:31;;;;;;;3.03;1.23;;;;;;;19.61;34.28;100731.41;7312303;19;129398;-59
2021/12/07 02:44:57;;;;;;;2.80;0.95;;;;;;;19.61;34.42;100725.03;7313406;19;132071;-59
2021/12/07 02:47:24;;;;;;;1.30;0.65;;;;;;;19.58;34.01;100723.59;7310783;19;131010;-59
2021/12/07 02:49:51;;;;;;;1.65;0.70;;;;;;;19.57;34.01;100730.22;7311447;19;128875;-59
2021/12/07 02:52:18;;;;;;;3.50;0.85;;;;;;;19.57;34.38;100740.50;7313134;19;129287;-60
2021/12/07 02:54:47;;;;;;;3.45;1.17;;;;;;;19.55;34.48;100746.31;7311775;19;132983;-59
2021/12/07 02:57:17;;;;;;;1.25;0.70;;;;;;;19.52;34.19;100747.66;7314162;19;131384;-59
2021/12/07 02:59:50;;;;;;;2.45;1.38;;;;;;;19.53;34.27;100756.84;7310463;19;132750;-59
2021/12/07 03:02:18;;;;;;;1.92;1.10;;;;;;;19.53;34.05;100768.75;7314545;19;128772;-60
2021/12/07 03:04:59;;;;;;;2.03;0.90;;;;;;;19.51;34.25;100764.56;7307688;19;132190;-59
2021/12/07 03:08:41;;;;;;;1.67;0.80;;;;;;;19.50;34.20;100774.00;7313694;19;134593;-59
2021/12/07 03:26:50;;;;;;;2.13;0.93;;;;;;;19.41;34.47;100779.13;7305018;19;131339;-59
2021/12/07 03:29:17;;;;;;;2.80;1.00;;;;;;;19.41;34.60;100778.31;7311269;19;131206;-59
2021/12/07 03:31:43;;;;;;;2.63;0.82;;;;;;;19.40;34.35;100779.41;7309960;19;130319;-59
2021/12/07 03:34:10;;;;;;;3.85;1.10;;;;;;;19.39;34.40;100786.88;7308903;19;129513;-59
2021/12/07 03:36:37;;;;;;;1.67;0.68;;;;;;;19.40;34.53;100784.94;7308247;19;131162;-59
2021/12/07 03:39:05;;;;;;;3.75;1.02;;;;;;;19.38;34.63;100782.44;7310371;19;131443;-60
2021/12/07 03:41:32;;;;;;;1.83;0.80;;;;;;;19.37;34.31;100794.63;7312571;19;129059;-60
2021/12/07 03:43:59;;;;;;;2.45;1.05;;;;;;;19.35;34.60;100794.84;7309299;19;129412;-60
2021/12/07 03:46:26;;;;;;;2.03;0.75;;;;;;;19.36;34.35;100795.72;7312870;19;132120;-59
2021/12/07 03:48:53;;;;;;;4.75;1.25;;;;;;;19.34;34.36;100798.72;7306441;19;131085;-59
2021/12/07 03:51:19;;;;;;;2.08;1.10;;;;;;;19.32;34.49;100781.50;7314114;19;130390;-59
2021/12/07 03:53:46;;;;;;;3.10;0.98;;;;;;;19.32;34.70;100802.84;7308401;19;130606;-59
2021/12/07 03:56:13;;;;;;;1.05;0.60;;;;;;;19.30;34.41;100814.22;7311689;19;131468;-61
2021/12/07 03:58:41;;;;;;;2.95;0.90;;;;;;;19.29;34.65;100806.13;7308051;19;131697;-60
2021/12/07 04:01:11;;;;;;;2.13;0.77;;;;;;;19.29;34.75;100806.13;7312298;19;131106;-59
2021/12/07 04:03:39;;;;;;;2.50;1.02;;;;;;;19.29;34.36;100812.53;7310613;19;128931;-60
2021/12/07 04:06:07;;;;;;;2.47;1.02;;;;;;;19.27;34.31;100808.31;7310688;19;131097;-59
2021/12/07 04:08:41;;;;;;;3.05;0.80;;;;;;;19.26;34.59;100798.34;7311245;19;131165;-59
2021/12/07 04:11:08;;;;;;;1.02;0.77;;;;;;;19.24;34.31;100809.66;7308671;19;129947;-59
2021/12/07 04:13:35;;;;;;;1.75;1.00;;;;;;;19.21;34.77;100799.94;7312819;19;129148;-60
2021/12/07 04:16:08;;;;;;;2.38;0.88;;;;;;;19.21;34.77;100805.47;7307309;19;131656;-59
2021/12/07 04:18:35;;;;;;;2.13;0.90;;;;;;;19.20;34.83;100814.03;7309604;19;131166;-60
2021/12/07 04:21:03;;;;;;;2.13;0.90;;;;;;;19.20;34.70;100820.41;7309075;19;129492;-59
2021/12/07 04:23:34;;;;;;;2.88;1.13;;;;;;;19.19;34.66;100823.44;7310871;19;129048;-59
2021/12/07 04:26:05;;;;;;;2.30;0.93;;;;;;;19.19;34.58;100831.75;7306598;19;131054;-61
2021/12/07 04:28:33;;;;;;;1.88;0.73;;;;;;;19.19;34.50;100827.03;7311559;19;132232;-60
2021/12/07 04:31:00;;;;;;;2.30;0.90;;;;;;;19.16;34.58;100833.09;7309378;19;128932;-60
2021/12/07 04:33:29;;;;;;;1.25;0.70;;;;;;;19.15;34.53;100830.56;7309271;19;129012;-59
2021/12/07 04:35:57;;;;;;;2.53;0.90;;;;;;;19.16;34.68;100829.47;7310518;19;131162;-59
2021/12/07 04:38:24;;;;;;;2.03;0.90;;;;;;;19.14;34.70;100840.81;7308303;19;131397;-59
2021/12/07 04:40:51;;;;;;;1.80;0.90;;;;;;;19.13;34.44;100841.06;7310356;19;129926;-59
2021/12/07 04:43:18;;;;;;;2.45;1.10;;;;;;;19.13;34.52;100843.84;7308107;19;129602;-60
2021/12/07 04:58:57;;;;;;;2.22;0.70;;;;;;;19.07;34.69;100848.47;7315084;19;131073;-58
2021/12/07 05:01:25;;;;;;;2.38;0.90;;;;;;;19.06;34.69;100852.31;7315098;19;130060;-59
2021/12/07 05:03:55;;;;;;;2.38;0.90;;;;;;;19.05;34.51;100848.72;7317056;19;129116;-59
2021/12/07 05:06:29;;;;;;;1.98;0.85;;;;;;;19.05;34.92;100851.50;7314206;19;131201;-59
2021/12/07 05:09:03;;;;;;;2.35;1.15;;;;;;;19.05;34.56;100857.03;7317379;19;131883;-59
2021/12/07 05:11:51;;;;;;;2.50;0.90;;;;;;;19.05;34.51;100857.03;7313138;19;129085;-60
2021/12/07 05:14:27;;;;;;;2.40;0.93;;;;;;;19.05;34.79;100857.03;7316403;19;129158;-59
2021/12/07 05:38:35;;;;;;;2.20;0.98;;;;;;;19.02;34.78;100890.81;7312071;19;131700;-59
2021/12/07 05:41:05;;;;;;;1.63;0.80;;;;;;;19.01;34.73;100891.91;7315679;19;131075;-58
2021/12/07 05:43:31;;;;;;;1.83;0.75;;;;;;;19.02;34.73;100898.28;7311619;19;129014;-59
2021/12/07 05:46:00;;;;;;;2.05;0.93;;;;;;;19.02;34.74;100890.81;7315389;19;129370;-59
2021/12/07 05:48:27;;;;;;;3.17;1.13;;;;;;;19.00;34.53;100893.00;7308914;19;131272;-59
2021/12/07 05:50:53;;;;;;;2.97;0.90;;;;;;;19.01;34.86;100907.72;7311723;19;132071;-59
2021/12/07 05:53:20;;;;;;;2.17;0.60;;;;;;;19.01;35.02;100913.25;7310766;19;129129;-59
2021/12/07 05:55:47;;;;;;;1.95;0.90;;;;;;;19.00;35.04;100898.53;7313078;19;128979;-61
2021/12/07 05:58:14;;;;;;;4.22;1.13;;;;;;;18.99;34.89;100905.16;7314565;19;131910;-60
2021/12/07 06:00:44;;;;;;;1.88;0.90;;;;;;;19.00;34.98;100912.41;7311785;19;131355;-59
2021/12/07 06:03:12;;;;;;;2.28;0.85;;;;;;;18.98;34.50;100928.44;7311802;19;129401;-59
2021/12/07 06:05:42;;;;;;;1.55;0.80;;;;;;;18.99;35.01;100930.13;7312266;19;129164;-60
2021/12/07 06:08:11;;;;;;;2.00;0.88;;;;;;;18.97;35.08;100935.06;7294084;19;132738;-60
2021/12/07 06:10:39;;;;;;;2.78;0.80;;;;;;;18.96;35.05;100925.06;7302423;19;131276;-60
2021/12/07 06:13:06;;;;;;;2.67;0.80;;;;;;;18.96;34.89;100929.78;7309608;19;129003;-59
2021/12/07 06:15:36;;;;;;;1.45;0.70;;;;;;;18.98;35.02;100933.16;7307357;19;131782;-59
2021/12/07 06:18:03;;;;;;;2.38;0.65;;;;;;;19.01;35.03;100930.72;7315899;19;132108;-60
2021/12/07 06:20:30;;;;;;;1.02;0.70;;;;;;;19.12;35.07;100933.66;7311747;19;132677;-59
2021/12/07 06:23:16;;;;;;;3.00;0.82;;;;;;;19.35;34.93;100930.78;7313884;19;129106;-58
2021/12/07 06:25:45;;;;;;;3.50;0.90;;;;;;;19.60;34.52;100926.75;7310909;19;130039;-59
2021/12/07 06:28:11;;;;;;;1.83;0.68;;;;;;;19.94;34.14;100923.09;7312251;19;132566;-59
2021/12/07 06:30:42;;;;;;;2.28;0.93;;;;;;;20.24;33.83;100919.94;7311620;19;131266;-58
2021/12/07 06:33:10;;;;;;;1.33;0.73;;;;;;;20.56;33.19;100924.78;7312022;19;128926;-59
2021/12/07 06:35:37;;;;;;;1.67;0.75;;;;;;;20.85;32.79;100919.03;7314503;19;129142;-60
2021/12/07 06:38:04;;;;;;;3.20;1.05;;;;;;;21.10;32.50;100931.50;7312427;19;131240;-59
2021/12/07 06:40:31;;;;;;;2.42;0.68;;;;;;;21.28;32.50;100923.91;7308379;19;132528;-58
2021/12/07 06:43:00;;;;;;;3.30;1.10;;;;;;;21.38;32.12;100923.97;7308016;19;129105;-59
2021/12/07 06:45:31;;;;;;;2.30;0.93;;;;;;;21.46;31.83;100920.69;7313641;19;128853;-59
2021/12/07 06:47:58;;;;;;;3.30;0.90;;;;;;;21.50;32.06;100921.88;7310292;19;131078;-59
2021/12/07 06:50:26;;;;;;;4.25;0.88;;;;;;;21.57;31.75;100918.03;7312577;19;131045;-59
2021/12/07 06:52:52;;;;;;;4.45;1.10;;;;;;;21.63;31.62;100911.41;7312985;19;129042;-59
2021/12/07 06:55:20;;;;;;;5.03;1.10;;;;;;;21.64;31.77;100905.56;7310994;19;128947;-59
2021/12/07 06:57:47;;;;;;;3.15;1.00;;;;;;;21.66;31.45;100917.25;7309967;19;131726;-59
2021/12/07 07:00:15;;;;;;;6.55;1.25;;;;;;;21.65;31.54;100904.44;7311278;19;131021;-60
2021/12/07 07:02:42;;;;;;;2.55;1.00;;;;;;;21.62;31.75;100906.94;7313759;19;128996;-60
2021/12/07 07:05:10;;;;;;;2.72;0.80;;;;;;;21.57;32.01;100893.81;7310958;19;130859;-59
2021/12/07 07:07:38;;;;;;;6.63;1.33;;;;;;;21.52;32.07;100891.84;7312952;19;131183;-59
2021/12/07 07:10:08;;;;;;;3.05;0.98;;;;;;;21.46;32.11;100894.81;7310438;19;131165;-59
2021/12/07 07:12:35;;;;;;;2.70;0.82;;;;;;;21.40;31.79;100896.72;7313796;19;129644;-58
2021/12/07 07:15:03;;;;;;;3.80;1.15;;;;;;;21.34;31.82;100897.78;7309749;19;129153;-59
2021/12/07 07:17:30;;;;;;;1.80;0.68;;;;;;;21.28;31.82;100905.25;7314879;19;131194;-59
2021/12/07 07:19:57;;;;;;;5.15;1.02;;;;;;;21.20;32.21;100917.69;7310404;19;131068;-59
2021/12/07 07:22:23;;;;;;;6.15;1.00;;;;;;;21.15;32.28;100914.03;7312688;19;128907;-59
2021/12/07 07:24:50;;;;;;;3.28;1.13;;;;;;;21.09;32.21;100917.88;7307726;19;128895;-59
2021/12/07 07:27:23;;;;;;;4.60;1.20;;;;;;;21.01;32.22;100919.19;7309196;19;131252;-60
2021/12/07 07:29:49;;;;;;;7.95;1.10;;;;;;;20.94;32.12;100919.41;7311248;19;131373;-60
2021/12/07 07:32:16;;;;;;;5.40;1.33;;;;;;;20.87;32.28;100914.03;7310776;19;128903;-60
2021/12/07 07:34:43;;;;;;;5.50;1.30;;;;;;;20.83;32.11;100917.63;7310762;19;131774;-60
2021/12/07 07:37:11;;;;;;;7.72;1.42;;;;;;;20.84;32.01;100917.34;7310891;19;131634;-60
2021/12/07 07:39:39;;;;;;;5.43;1.60;;;;;;;20.87;32.57;100916.81;7313343;19;131893;-59
2021/12/07 07:42:06;;;;;;;5.03;1.40;;;;;;;20.96;32.56;100924.69;7307876;19;129464;-60
2021/12/07 07:44:33;;;;;;;5.43;1.73;;;;;;;21.06;31.97;100920.06;7312456;19;129024;-60
2021/12/07 07:47:00;;;;;;;5.18;1.63;;;;;;;21.20;32.12;100923.25;7306940;19;131353;-58
2021/12/07 07:49:26;;;;;;;7.00;1.45;;;;;;;21.43;31.97;100925.97;7311992;19;131094;-59
2021/12/07 07:51:53;;;;;;;5.47;1.48;;;;;;;21.76;31.29;100926.78;7308310;19;129158;-60
2021/12/07 07:54:20;;;;;;;7.53;1.60;;;;;;;21.99;31.21;100931.13;7313066;19;132572;-59
2021/12/07 07:56:47;;;;;;;7.50;1.80;;;;;;;22.15;31.28;100926.47;7311416;19;131406;-60
2021/12/07 07:59:14;;;;;;;7.20;1.70;;;;;;;22.00;31.32;100941.16;7309802;19;131276;-59
2021/12/07 08:01:40;;;;;;;7.47;1.48;;;;;;;22.01;31.58;100936.41;7310444;19;128953;-59
2021/12/07 08:04:07;;;;;;;9.98;1.60;;;;;;;22.16;30.68;100936.53;7308443;19;129539;-59
2021/12/07 08:06:34;;;;;;;4.75;1.70;;;;;;;22.33;30.55;100938.31;7312671;19;131201;-59
2021/12/07 08:09:03;;;;;;;5.63;1.80;;;;;;;22.48;30.71;100945.91;7309759;19;131025;-60
2021/12/07 08:11:30;;;;;;;6.22;1.52;;;;;;;22.32;30.62;100939.41;7310927;19;129119;-59
2021/12/07 08:13:56;;;;;;;6.70;1.42;;;;;;;22.64;30.46;100950.44;7309079;19;129345;-59
2021/12/07 08:16:24;;;;;;;7.07;1.55;;;;;;;22.78;29.97;100947.09;7313102;19;131433;-59
2021/12/07 08:18:52;;;;;;;4.80;1.70;;;;;;;22.95;30.16;100958.91;7303311;19;130640;-60
2021/12/07 08:21:19;;;;;;;3.75;1.15;;;;;;;22.82;29.97;100943.50;7320823;19;128918;-59
2021/12/07 08:23:47;;;;;;;7.75;1.77;;;;;;;22.83;29.97;100939.59;7319773;19;129539;-59
2021/12/07 08:26:17;;;;;;;4.05;1.25;;;;;;;22.80;30.35;100939.31;7319644;19;130665;-59
2021/12/07 08:28:52;;;;;;;4.90;1.75;;;;;;;22.82;30.04;100935.16;7318584;19;131181;-59
2021/12/07 08:31:19;;;;;;;5.00;1.33;;;;;;;22.91;30.02;100927.09;7318536;19;128889;-59
2021/12/07 08:33:46;;;;;;;4.95;1.50;;;;;;;22.92;29.89;100922.38;7320062;19;129354;-58
2021/12/07 08:36:13;;;;;;;4.30;1.40;;;;;;;22.86;29.99;100913.13;7319037;19;130745;-59
2021/12/07 08:38:40;;;;;;;4.63;1.23;;;;;;;22.88;30.13;100914.50;7319462;19;130788;-59
2021/12/07 08:41:08;;;;;;;4.90;1.40;;;;;;;22.92;29.83;100906.44;7317521;19;129419;-59
2021/12/07 08:43:38;;;;;;;6.25;1.63;;;;;;;22.99;30.00;100909.81;7321042;19;128836;-59
2021/12/07 08:46:07;;;;;;;3.72;0.95;;;;;;;23.08;30.05;100909.28;7316940;19;131023;-58
2021/12/07 08:48:34;;;;;;;4.22;1.30;;;;;;;23.19;29.68;100910.94;7318991;19;130528;-59
2021/12/07 08:51:03;;;;;;;5.03;1.50;;;;;;;23.26;29.39;100910.69;7317074;19;129132;-59
2021/12/07 08:53:30;;;;;;;3.70;1.50;;;;;;;23.32;29.60;100910.41;7318204;19;128958;-58
2021/12/07 09:01:32;;;;;;;5.28;1.42;;;;;;;23.45;29.69;100900.63;7320655;19;128858;-59
2021/12/07 09:04:00;;;;;;;6.07;1.60;;;;;;;23.51;29.59;100904.25;7315342;19;128927;-58
2021/12/07 09:06:28;;;;;;;4.38;1.30;;;;;;;23.58;29.56;100907.63;7320484;19;130974;-59
2021/12/07 09:08:56;;;;;;;4.80;1.40;;;;;;;23.65;29.54;100902.59;7315707;19;134522;-59
2021/12/07 09:11:23;;;;;;;5.15;1.55;;;;;;;23.69;29.48;100896.44;7316297;19;129449;-59
2021/12/07 09:13:49;;;;;;;4.57;1.40;;;;;;;23.69;29.30;100897.28;7312855;19;130337;-59
2021/12/07 09:16:18;;;;;;;3.35;1.20;;;;;;;23.65;29.49;100894.19;7316580;19;131938;-59
2021/12/07 09:18:46;;;;;;;8.45;1.38;;;;;;;23.61;29.28;100898.69;7315112;19;138406;-59
2021/12/07 09:21:14;;;;;;;5.78;1.33;;;;;;;23.51;29.67;100896.72;7317033;19;128942;-59
2021/12/07 09:23:41;;;;;;;4.05;1.50;;;;;;;23.42;29.70;100887.25;7316562;19;128976;-59
2021/12/07 09:26:09;;;;;;;4.80;1.55;;;;;;;23.32;30.16;100884.44;7315876;19;130693;-58
2021/12/07 09:28:38;;;;;;;2.63;1.23;;;;;;;23.20;30.21;100887.50;7318197;19;131415;-59
2021/12/07 09:31:07;;;;;;;3.60;1.30;;;;;;;23.10;30.03;100884.72;7313532;19;128920;-59
2021/12/07 09:33:34;;;;;;;6.72;1.58;;;;;;;22.99;30.28;100881.06;7319048;19;129534;-59
2021/12/07 09:36:07;;;;;;;5.72;1.50;;;;;;;22.88;30.52;100875.47;7314885;19;130670;-59
2021/12/07 09:38:34;;;;;;;3.80;1.35;;;;;;;22.78;30.62;100877.38;7319487;19;130470;-59
2021/12/07 09:41:03;;;;;;;6.45;1.42;;;;;;;22.69;30.71;100885.47;7314652;19;128880;-59
2021/12/07 09:43:30;;;;;;;5.32;1.52;;;;;;;22.59;30.80;100897.44;7318443;19;129209;-59
2021/12/07 09:45:58;;;;;;;9.35;1.92;;;;;;;22.50;30.70;100888.75;7310944;19;130805;-59
2021/12/07 09:48:25;;;;;;;5.53;1.55;;;;;;;22.40;30.91;100883.97;7317186;19;131326;-60
2021/12/07 09:50:54;;;;;;;5.18;1.80;;;;;;;22.27;30.95;100878.94;7313854;19;130310;-59
2021/12/07 09:53:22;;;;;;;8.10;1.90;;;;;;;22.20;30.97;100879.16;7316822;19;130290;-58
2021/12/07 09:55:58;;;;;;;10.27;2.08;;;;;;;22.12;30.89;100877.72;7318037;19;131564;-59
2021/12/07 09:58:24;;;;;;;4.93;1.60;;;;;;;22.05;30.88;100868.75;7316172;19;130540;-59
2021/12/07 10:00:52;;;;;;;10.27;1.83;;;;;;;21.97;31.01;100872.06;7317364;19;128863;-59
2021/12/07 10:03:21;;;;;;;10.43;2.45;;;;;;;21.90;30.78;100868.69;7315371;19;129989;-58
2021/12/07 10:05:49;;;;;;;6.47;1.50;;;;;;;21.85;31.25;100871.44;7317285;19;130645;-58
2021/12/07 10:08:16;;;;;;;11.68;1.98;;;;;;;21.81;31.48;100869.19;7315301;19;130536;-59
2021/12/07 10:10:46;;;;;;;8.40;2.00;;;;;;;21.79;31.66;100854.69;7315766;19;128856;-59
2021/12/07 10:13:15;;;;;;;5.50;1.65;;;;;;;21.82;31.18;100856.94;7314830;19;128982;-59
2021/12/07 10:15:43;;;;;;;5.93;2.00;;;;;;;21.85;31.52;100849.16;7316197;19;131092;-59
2021/12/07 10:18:13;;;;;;;6.00;2.08;;;;;;;21.92;31.24;100855.31;7314897;19;130287;-59
2021/12/07 10:21:04;;;;;;;9.57;1.52;;;;;;;22.00;31.07;100845.59;7314285;19;130303;-59
2021/12/07 10:23:37;;;;;;;5.65;1.50;;;;;;;22.06;31.43;100837.00;7317059;19;129230;-59
2021/12/07 10:26:09;;;;;;;7.68;2.05;;;;;;;22.12;31.33;100819.22;7314828;19;130813;-59
2021/12/07 10:28:43;;;;;;;7.38;1.70;;;;;;;22.19;31.05;100827.31;7316886;19;130698;-60
2021/12/07 10:31:10;;;;;;;6.80;1.80;;;;;;;22.24;31.19;100824.56;7313910;19;130975;-59
2021/12/07 10:33:59;;;;;;;7.20;1.88;;;;;;;22.31;31.35;100829.88;7316357;19;129102;-59
2021/12/07 10:36:33;;;;;;;4.10;1.63;;;;;;;22.34;31.12;100829.34;7316199;19;130632;-59
2021/12/07 10:39:11;;;;;;;5.35;1.77;;;;;;;22.39;31.59;100831.28;7315423;19;131243;-59
2021/12/07 10:41:53;;;;;;;6.28;1.80;;;;;;;22.42;31.27;100812.06;7315252;19;128948;-59
2021/12/07 10:44:25;;;;;;;4.65;1.70;;;;;;;22.45;31.43;100799.56;7310361;19;128933;-60
2021/12/07 10:47:22;;;;;;;7.90;1.83;;;;;;;22.48;31.10;100800.94;7315199;19;129479;-59
2021/12/07 10:49:54;;;;;;;6.32;1.98;;;;;;;22.52;31.05;100793.72;7310714;19;132792;-59
2021/12/07 10:52:35;;;;;;;4.00;1.65;;;;;;;22.53;30.87;100782.28;7310653;19;136600;-59
2021/12/07 10:55:05;;;;;;;7.28;2.03;;;;;;;22.53;30.57;100775.84;7314384;19;130465;-59
2021/12/07 10:57:38;;;;;;;6.90;2.38;;;;;;;22.54;30.69;100767.22;7312759;19;130310;-59
2021/12/07 11:00:11;;;;;;;7.60;1.73;;;;;;;22.58;30.36;100761.91;7315112;19;130641;-59
2021/12/07 11:02:41;;;;;;;7.85;2.25;;;;;;;22.59;30.34;100755.22;7309320;19;128979;-60
2021/12/07 11:05:20;;;;;;;11.07;2.13;;;;;;;22.61;30.27;100757.72;7311991;19;129907;-59
2021/12/07 11:07:48;;;;;;;8.43;1.70;;;;;;;22.63;30.07;100748.00;7306294;19;130734;-58
2021/12/07 11:10:30;;;;;;;4.70;1.58;;;;;;;22.67;30.23;100749.09;7312852;19;130493;-59
2021/12/07 11:15:36;;;;;;;9.82;2.05;;;;;;;22.67;29.93;100756.63;7311373;19;128846;-59
2021/12/07 11:18:10;;;;;;;13.80;1.60;;;;;;;22.66;29.86;100753.00;7315662;19;131030;-59
2021/12/07 11:20:38;;;;;;;5.15;2.00;;;;;;;22.66;29.68;100750.19;7312678;19;130702;-59
2021/12/07 11:23:16;;;;;;;7.68;2.15;;;;;;;22.68;29.61;100752.72;7315992;19;129438;-60
2021/12/07 11:31:34;;;;;;;4.78;1.75;;;;;;;22.69;30.06;100732.09;7314178;19;130483;-59
2021/12/07 11:34:05;;;;;;;7.32;1.48;;;;;;;22.69;29.62;100730.13;7312269;19;129383;-59
2021/12/07 11:36:37;;;;;;;6.55;1.73;;;;;;;22.70;29.76;100731.81;7315488;19;128991;-59
2021/12/07 11:39:31;;;;;;;6.13;1.83;;;;;;;22.71;29.78;100722.34;7309243;19;131441;-59
2021/12/07 11:42:08;;;;;;;10.32;1.92;;;;;;;22.73;29.52;100724.84;7313364;19;130610;-60
2021/12/07 11:44:38;;;;;;;7.05;1.52;;;;;;;22.72;29.88;100700.84;7312267;19;128708;-59
2021/12/07 11:47:05;;;;;;;6.53;1.52;;;;;;;22.73;30.00;100697.78;7313619;19;128800;-59
2021/12/07 11:49:34;;;;;;;6.53;2.22;;;;;;;22.73;29.85;100706.16;7313636;19;130596;-59
2021/12/07 11:52:04;;;;;;;6.45;1.70;;;;;;;22.74;29.87;100702.25;7308842;19;131488;-59
2021/12/07 11:54:35;;;;;;;3.92;1.45;;;;;;;22.75;30.00;100680.78;7311639;19;129099;-60
2021/12/07 11:57:05;;;;;;;6.13;1.67;;;;;;;22.75;30.21;100672.41;7306346;19;129886;-60
2021/12/07 11:59:31;;;;;;;7.88;1.48;;;;;;;22.75;29.48;100677.97;7311650;19;131889;-59
2021/12/07 12:01:59;;;;;;;6.63;1.90;;;;;;;22.76;29.77;100667.69;7311184;19;131053;-59
2021/12/07 12:04:26;;;;;;;12.52;2.15;;;;;;;22.77;29.54;100663.78;7312893;19;128987;-59
2021/12/07 12:06:56;;;;;;;7.10;1.70;;;;;;;22.77;29.46;100652.63;7311108;19;129091;-59
2021/12/07 12:09:25;;;;;;;9.10;2.17;;;;;;;22.77;29.53;100642.28;7313027;19;131334;-59
2021/12/07 12:12:16;;;;;;;10.43;1.90;;;;;;;22.79;29.38;100634.47;7310638;19;130641;-59
2021/12/07 12:14:52;;;;;;;14.80;4.00;;;;;;;22.79;29.54;100626.13;7310394;19;128829;-59
2021/12/07 12:18:01;;;;;;;19.50;5.75;;;;;;;22.83;29.77;100601.28;7312593;19;129036;-59
2021/12/07 12:21:05;;;;;;;25.13;6.63;;;;;;;22.88;29.60;100588.16;7306621;19;131162;-60
2021/12/07 12:23:52;;;;;;;21.52;6.88;;;;;;;22.91;29.46;100580.38;7310963;19;130538;-59
2021/12/07 12:26:24;;;;;;;19.57;6.90;;;;;;;22.93;29.87;100573.38;7312572;19;129092;-59
2021/12/07 12:28:52;;;;;;;15.00;7.35;;;;;;;22.95;30.07;100571.16;7308419;19;128881;-59
2021/12/07 12:31:49;;;;;;;17.38;7.18;;;;;;;22.99;29.86;100566.69;7310024;19;131339;-59
2021/12/07 12:34:28;;;;;;;17.25;7.03;;;;;;;23.01;30.17;100561.66;7308275;19;130521;-59
2021/12/07 12:37:06;;;;;;;23.10;7.35;;;;;;;23.04;29.64;100551.88;7310142;19;128992;-59
2021/12/07 12:39:49;;;;;;;14.45;6.65;;;;;;;23.04;29.85;100544.31;7312254;19;128940;-58
2021/12/07 12:42:38;;;;;;;16.20;6.47;;;;;;;23.04;29.82;100530.38;7308537;19;131239;-60
2021/12/07 12:45:11;;;;;;;14.68;5.90;;;;;;;23.04;29.77;100519.22;7310133;19;131372;-59
2021/12/07 12:47:39;;;;;;;15.23;6.57;;;;;;;23.04;29.96;100519.22;7307628;19;129314;-59
2021/12/07 12:50:14;;;;;;;11.88;5.80;;;;;;;23.05;29.93;100520.88;7309336;19;130608;-59
2021/12/07 12:52:53;;;;;;;12.98;6.22;;;;;;;23.02;29.99;100504.72;7308519;19;130700;-60
2021/12/07 12:55:34;;;;;;;14.88;5.53;;;;;;;23.01;30.18;100505.84;7308803;19;131183;-60
2021/12/07 12:58:03;;;;;;;13.95;5.55;;;;;;;22.98;29.76;100502.78;7312863;19;128994;-60
2021/12/07 13:01:00;;;;;;;10.85;4.78;;;;;;;22.92;29.89;100488.03;7306453;19;129034;-59
2021/12/07 13:03:43;;;;;;;12.02;4.88;;;;;;;22.85;30.04;100479.13;7306812;19;132388;-59
2021/12/07 13:06:17;;;;;;;13.25;5.45;;;;;;;22.78;29.81;100471.06;7311839;19;131267;-60
2021/12/07 13:09:05;;;;;;;11.95;5.32;;;;;;;22.68;30.36;100469.13;7316288;19;129525;-59
2021/12/07 13:11:43;;;;;;;12.43;5.63;;;;;;;22.61;30.63;100464.97;7314912;19;129315;-59
2021/12/07 13:14:13;;;;;;;11.52;4.70;;;;;;;22.50;30.38;100462.25;7316470;19;131985;-60
2021/12/07 13:16:59;;;;;;;13.73;4.78;;;;;;;22.43;30.41;100470.91;7317482;19;130511;-60